sensor_id;sensor_type;location;lat;lon;timestamp;temperature;humidity
31455;DHT22;18084;53.028;8.834;2022-09-01T02:40:26;13.80;99.90
31455;DHT22;18084;53.028;8.834;2022-09-01T02:42:56;13.40;36.50
31455;DHT22;18084;53.028;8.834;2022-09-01T02:45:25;13.80;80.70
31455;DHT22;18084;53.028;8.834;2022-09-01T02:47:51;14.40;94.70
31455;DHT22;18084;53.028;8.834;2022-09-01T02:50:19;15.00;99.90
31455;DHT22;18084;53.028;8.834;2022-09-01T02:52:47;13.70;1.00
31455;DHT22;18084;53.028;8.834;2022-09-01T02:55:17;13.70;1.00
31455;DHT22;18084;53.028;8.834;2022-09-01T02:57:50;13.70;5.50
31455;DHT22;18084;53.028;8.834;2022-09-01T03:00:21;13.60;99.90
31455;DHT22;18084;53.028;8.834;2022-09-01T03:02:55;13.60;99.90
31455;DHT22;18084;53.028;8.834;2022-09-01T03:05:23;13.50;1.00
31455;DHT22;18084;53.028;8.834;2022-09-01T03:07:53;13.60;99.90
31455;DHT22;18084;53.028;8.834;2022-09-01T03:10:25;13.50;1.00
31455;DHT22;18084;53.028;8.834;2022-09-01T03:12:53;13.50;1.00
31455;DHT22;18084;53.028;8.834;2022-09-01T03:15:19;13.40;99.90
31455;DHT22;18084;53.028;8.834;2022-09-01T03:17:46;13.40;1.00
31455;DHT22;18084;53.028;8.834;2022-09-01T03:20:15;13.40;1.00
31455;DHT22;18084;53.028;8.834;2022-09-01T03:22:43;13.30;99.90
31455;DHT22;18084;53.028;8.834;2022-09-01T03:25:09;13.30;1.00
31455;DHT22;18084;53.028;8.834;2022-09-01T03:27:34;12.90;65.90
31455;DHT22;18084;53.028;8.834;2022-09-01T03:30:00;13.50;99.90
31455;DHT22;18084;53.028;8.834;2022-09-01T03:32:25;13.20;99.90
31455;DHT22;18084;53.028;8.834;2022-09-01T03:34:51;13.20;99.90
31455;DHT22;18084;53.028;8.834;2022-09-01T03:37:16;13.20;99.90
31455;DHT22;18084;53.028;8.834;2022-09-01T03:39:43;13.10;1.00
31455;DHT22;18084;53.028;8.834;2022-09-01T03:42:08;13.10;1.00
31455;DHT22;18084;53.028;8.834;2022-09-01T03:44:43;13.10;99.90
31455;DHT22;18084;53.028;8.834;2022-09-01T03:47:09;13.10;99.90
31455;DHT22;18084;53.028;8.834;2022-09-01T03:49:36;13.60;99.90
31455;DHT22;18084;53.028;8.834;2022-09-01T03:52:04;13.00;4.40
31455;DHT22;18084;53.028;8.834;2022-09-01T03:54:33;13.00;9.80
31455;DHT22;18084;53.028;8.834;2022-09-01T03:56:59;12.90;99.90
31455;DHT22;18084;53.028;8.834;2022-09-01T03:59:25;14.40;99.90
31455;DHT22;18084;53.028;8.834;2022-09-01T04:01:51;12.90;99.90
31455;DHT22;18084;53.028;8.834;2022-09-01T04:04:16;12.80;99.90
31455;DHT22;18084;53.028;8.834;2022-09-01T04:06:43;12.80;99.90
31455;DHT22;18084;53.028;8.834;2022-09-01T04:09:09;12.80;99.90
31455;DHT22;18084;53.028;8.834;2022-09-01T04:11:37;12.80;99.90
31455;DHT22;18084;53.028;8.834;2022-09-01T04:14:04;12.90;99.90
31455;DHT22;18084;53.028;8.834;2022-09-01T04:16:32;12.70;99.90
31455;DHT22;18084;53.028;8.834;2022-09-01T04:19:20;12.70;99.90
31455;DHT22;18084;53.028;8.834;2022-09-01T04:21:51;12.60;99.90
31455;DHT22;18084;53.028;8.834;2022-09-01T04:24:22;12.60;99.90
31455;DHT22;18084;53.028;8.834;2022-09-01T04:26:49;12.60;99.90
31455;DHT22;18084;53.028;8.834;2022-09-01T04:29:16;12.50;99.90
31455;DHT22;18084;53.028;8.834;2022-09-01T04:31:43;12.50;1.00
31455;DHT22;18084;53.028;8.834;2022-09-01T04:34:09;12.50;1.00
31455;DHT22;18084;53.028;8.834;2022-09-01T04:36:40;12.60;1.00
31455;DHT22;18084;53.028;8.834;2022-09-01T04:39:07;12.50;1.00
31455;DHT22;18084;53.028;8.834;2022-09-01T04:41:39;12.50;1.00
31455;DHT22;18084;53.028;8.834;2022-09-01T04:44:06;13.00;1.00
31455;DHT22;18084;53.028;8.834;2022-09-01T04:49:48;12.50;1.00
31455;DHT22;18084;53.028;8.834;2022-09-01T04:52:23;12.50;1.00
31455;DHT22;18084;53.028;8.834;2022-09-01T04:58:22;12.40;1.00
31455;DHT22;18084;53.028;8.834;2022-09-01T05:00:55;12.10;1.00
31455;DHT22;18084;53.028;8.834;2022-09-01T05:03:24;12.50;1.00
31455;DHT22;18084;53.028;8.834;2022-09-01T05:06:01;12.70;1.00
31455;DHT22;18084;53.028;8.834;2022-09-01T05:08:26;12.60;1.00
31455;DHT22;18084;53.028;8.834;2022-09-01T05:10:53;12.50;1.00
31455;DHT22;18084;53.028;8.834;2022-09-01T05:13:21;12.50;1.00
31455;DHT22;18084;53.028;8.834;2022-09-01T05:16:03;12.70;1.00
31455;DHT22;18084;53.028;8.834;2022-09-01T05:18:30;12.80;1.00
31455;DHT22;18084;53.028;8.834;2022-09-01T05:20:56;13.00;99.90
31455;DHT22;18084;53.028;8.834;2022-09-01T05:23:22;13.10;99.90
31455;DHT22;18084;53.028;8.834;2022-09-01T05:25:50;13.30;99.90
31455;DHT22;18084;53.028;8.834;2022-09-01T05:28:20;13.60;1.00
31455;DHT22;18084;53.028;8.834;2022-09-01T05:30:49;13.80;83.50
31455;DHT22;18084;53.028;8.834;2022-09-01T05:33:15;14.00;1.00
31455;DHT22;18084;53.028;8.834;2022-09-01T05:35:42;14.20;99.90
31455;DHT22;18084;53.028;8.834;2022-09-01T05:38:16;14.40;99.90
31455;DHT22;18084;53.028;8.834;2022-09-01T05:40:42;14.70;99.90
31455;DHT22;18084;53.028;8.834;2022-09-01T05:43:10;14.70;99.90
31455;DHT22;18084;53.028;8.834;2022-09-01T05:45:39;14.80;1.00
31455;DHT22;18084;53.028;8.834;2022-09-01T05:48:09;15.10;99.90
31455;DHT22;18084;53.028;8.834;2022-09-01T05:50:38;15.20;99.90
31455;DHT22;18084;53.028;8.834;2022-09-01T05:53:05;15.10;99.90
31455;DHT22;18084;53.028;8.834;2022-09-01T05:55:36;15.20;99.90
31455;DHT22;18084;53.028;8.834;2022-09-01T05:58:04;15.40;99.90
31455;DHT22;18084;53.028;8.834;2022-09-01T06:00:30;15.60;99.90
31455;DHT22;18084;53.028;8.834;2022-09-01T06:02:59;15.80;99.90
31455;DHT22;18084;53.028;8.834;2022-09-01T06:05:25;16.00;93.20
31455;DHT22;18084;53.028;8.834;2022-09-01T06:07:51;16.00;1.00
31455;DHT22;18084;53.028;8.834;2022-09-01T06:10:21;16.10;1.00
31455;DHT22;18084;53.028;8.834;2022-09-01T06:12:50;16.30;99.90
31455;DHT22;18084;53.028;8.834;2022-09-01T06:15:17;16.30;99.90
31455;DHT22;18084;53.028;8.834;2022-09-01T06:17:45;16.40;99.90
31455;DHT22;18084;53.028;8.834;2022-09-01T06:20:20;16.80;99.90
31455;DHT22;18084;53.028;8.834;2022-09-01T06:22:57;17.00;99.90
31455;DHT22;18084;53.028;8.834;2022-09-01T06:25:35;16.90;92.00
31455;DHT22;18084;53.028;8.834;2022-09-01T06:28:02;17.30;31.40
31455;DHT22;18084;53.028;8.834;2022-09-01T06:30:29;17.60;1.00
31455;DHT22;18084;53.028;8.834;2022-09-01T06:32:55;17.80;1.00
31455;DHT22;18084;53.028;8.834;2022-09-01T06:35:23;18.00;1.00
31455;DHT22;18084;53.028;8.834;2022-09-01T06:37:54;18.20;1.00
31455;DHT22;18084;53.028;8.834;2022-09-01T06:40:21;18.40;99.90
31455;DHT22;18084;53.028;8.834;2022-09-01T06:42:50;18.50;99.90
31455;DHT22;18084;53.028;8.834;2022-09-01T06:45:19;18.80;99.90
31455;DHT22;18084;53.028;8.834;2022-09-01T06:47:46;19.10;99.90
31455;DHT22;18084;53.028;8.834;2022-09-01T06:50:15;19.50;99.90
31455;DHT22;18084;53.028;8.834;2022-09-01T06:52:44;19.70;99.90
31455;DHT22;18084;53.028;8.834;2022-09-01T06:55:12;20.10;99.90
31455;DHT22;18084;53.028;8.834;2022-09-01T06:57:40;20.10;99.90
31455;DHT22;18084;53.028;8.834;2022-09-01T07:00:11;20.40;99.90
31455;DHT22;18084;53.028;8.834;2022-09-01T07:02:45;21.00;99.90
31455;DHT22;18084;53.028;8.834;2022-09-01T07:05:13;21.20;99.90
31455;DHT22;18084;53.028;8.834;2022-09-01T07:07:50;21.40;99.90
31455;DHT22;18084;53.028;8.834;2022-09-01T07:10:17;21.50;99.90
31455;DHT22;18084;53.028;8.834;2022-09-01T07:12:50;22.00;99.90
31455;DHT22;18084;53.028;8.834;2022-09-01T07:15:19;21.80;99.90
31455;DHT22;18084;53.028;8.834;2022-09-01T07:17:53;22.00;99.90
31455;DHT22;18084;53.028;8.834;2022-09-01T07:20:24;22.30;99.90
31455;DHT22;18084;53.028;8.834;2022-09-01T07:22:55;22.70;99.90
31455;DHT22;18084;53.028;8.834;2022-09-01T07:25:21;22.50;99.90
31455;DHT22;18084;53.028;8.834;2022-09-01T07:27:47;23.20;99.90
31455;DHT22;18084;53.028;8.834;2022-09-01T07:30:20;22.70;99.90
31455;DHT22;18084;53.028;8.834;2022-09-01T07:32:47;22.60;99.90
31455;DHT22;18084;53.028;8.834;2022-09-01T07:35:19;22.90;99.90
31455;DHT22;18084;53.028;8.834;2022-09-01T07:37:46;22.70;99.90
31455;DHT22;18084;53.028;8.834;2022-09-01T07:40:15;22.90;99.90
31455;DHT22;18084;53.028;8.834;2022-09-01T07:42:45;22.50;99.90
31455;DHT22;18084;53.028;8.834;2022-09-01T07:45:13;23.00;99.90
31455;DHT22;18084;53.028;8.834;2022-09-01T07:47:39;23.50;99.90
31455;DHT22;18084;53.028;8.834;2022-09-01T07:50:07;23.20;99.90
31455;DHT22;18084;53.028;8.834;2022-09-01T07:52:35;23.40;99.90
31455;DHT22;18084;53.028;8.834;2022-09-01T07:55:05;23.60;99.90
31455;DHT22;18084;53.028;8.834;2022-09-01T07:57:32;24.80;99.90
31455;DHT22;18084;53.028;8.834;2022-09-01T07:59:58;25.40;99.90
31455;DHT22;18084;53.028;8.834;2022-09-01T08:02:24;25.30;99.90
31455;DHT22;18084;53.028;8.834;2022-09-01T08:04:49;25.00;99.90
31455;DHT22;18084;53.028;8.834;2022-09-01T08:07:15;25.10;99.90
31455;DHT22;18084;53.028;8.834;2022-09-01T08:09:40;25.30;99.90
31455;DHT22;18084;53.028;8.834;2022-09-01T08:12:07;24.90;99.90
31455;DHT22;18084;53.028;8.834;2022-09-01T08:14:33;24.90;99.90
31455;DHT22;18084;53.028;8.834;2022-09-01T08:16:59;25.00;99.90
31455;DHT22;18084;53.028;8.834;2022-09-01T08:19:24;25.60;99.90
31455;DHT22;18084;53.028;8.834;2022-09-01T08:21:53;25.30;99.90
31455;DHT22;18084;53.028;8.834;2022-09-01T08:24:18;25.50;99.90
31455;DHT22;18084;53.028;8.834;2022-09-01T08:26:44;25.70;99.90
31455;DHT22;18084;53.028;8.834;2022-09-01T12:26:38;24.20;78.90
31455;DHT22;18084;53.028;8.834;2022-09-01T12:29:05;25.00;79.30
31455;DHT22;18084;53.028;8.834;2022-09-01T12:31:32;23.90;81.80
31455;DHT22;18084;53.028;8.834;2022-09-01T12:33:58;23.90;77.40
31455;DHT22;18084;53.028;8.834;2022-09-01T12:36:31;24.20;75.80
31455;DHT22;18084;53.028;8.834;2022-09-01T12:39:21;24.20;76.40
31455;DHT22;18084;53.028;8.834;2022-09-01T12:42:02;24.00;76.60
31455;DHT22;18084;53.028;8.834;2022-09-01T12:44:41;23.70;76.80
31455;DHT22;18084;53.028;8.834;2022-09-01T12:47:12;24.00;75.90
31455;DHT22;18084;53.028;8.834;2022-09-01T12:54:49;24.80;74.00
31455;DHT22;18084;53.028;8.834;2022-09-01T12:57:34;25.00;75.20
31455;DHT22;18084;53.028;8.834;2022-09-01T13:02:42;24.00;74.40
31455;DHT22;18084;53.028;8.834;2022-09-01T13:05:41;23.80;73.10
31455;DHT22;18084;53.028;8.834;2022-09-01T13:08:12;24.00;75.10
31455;DHT22;18084;53.028;8.834;2022-09-01T13:10:44;24.90;74.80
31455;DHT22;18084;53.028;8.834;2022-09-01T13:13:11;25.00;74.60
31455;DHT22;18084;53.028;8.834;2022-09-01T13:15:41;24.60;73.70
31455;DHT22;18084;53.028;8.834;2022-09-01T13:18:07;25.40;74.00
31455;DHT22;18084;53.028;8.834;2022-09-01T13:20:34;24.60;70.70
31455;DHT22;18084;53.028;8.834;2022-09-01T13:23:00;24.40;72.90
31455;DHT22;18084;53.028;8.834;2022-09-01T13:25:25;24.50;72.30
31455;DHT22;18084;53.028;8.834;2022-09-01T13:27:51;24.30;73.80
31455;DHT22;18084;53.028;8.834;2022-09-01T13:30:23;24.70;73.40
31455;DHT22;18084;53.028;8.834;2022-09-01T13:32:51;25.10;69.40
31455;DHT22;18084;53.028;8.834;2022-09-01T13:35:19;25.30;70.60
31455;DHT22;18084;53.028;8.834;2022-09-01T13:37:46;25.60;72.00
31455;DHT22;18084;53.028;8.834;2022-09-01T13:40:12;26.00;72.80
31455;DHT22;18084;53.028;8.834;2022-09-01T13:42:46;26.90;72.80
31455;DHT22;18084;53.028;8.834;2022-09-01T13:45:13;25.60;71.70
31455;DHT22;18084;53.028;8.834;2022-09-01T13:47:41;25.60;70.00
31455;DHT22;18084;53.028;8.834;2022-09-01T13:50:09;25.50;70.40
31455;DHT22;18084;53.028;8.834;2022-09-01T13:52:36;25.10;69.40
31455;DHT22;18084;53.028;8.834;2022-09-01T13:55:03;25.10;70.20
31455;DHT22;18084;53.028;8.834;2022-09-01T13:57:29;24.10;70.20
31455;DHT22;18084;53.028;8.834;2022-09-01T13:59:55;23.80;69.30
31455;DHT22;18084;53.028;8.834;2022-09-01T14:02:22;23.40;71.10
31455;DHT22;18084;53.028;8.834;2022-09-01T14:04:48;23.40;71.30
31455;DHT22;18084;53.028;8.834;2022-09-01T14:07:13;23.60;72.50
31455;DHT22;18084;53.028;8.834;2022-09-01T14:09:40;23.60;72.40
31455;DHT22;18084;53.028;8.834;2022-09-01T14:12:05;24.00;71.50
31455;DHT22;18084;53.028;8.834;2022-09-01T14:14:32;24.10;70.10
31455;DHT22;18084;53.028;8.834;2022-09-01T14:16:58;24.20;70.00
31455;DHT22;18084;53.028;8.834;2022-09-01T14:19:24;23.70;69.30
31455;DHT22;18084;53.028;8.834;2022-09-01T14:21:49;23.90;70.00
31455;DHT22;18084;53.028;8.834;2022-09-01T14:24:15;23.70;69.00
31455;DHT22;18084;53.028;8.834;2022-09-01T14:26:44;23.50;70.00
31455;DHT22;18084;53.028;8.834;2022-09-01T14:29:10;23.40;71.20
31455;DHT22;18084;53.028;8.834;2022-09-01T14:31:35;22.90;69.60
31455;DHT22;18084;53.028;8.834;2022-09-01T14:34:02;24.80;70.20
31455;DHT22;18084;53.028;8.834;2022-09-01T14:36:28;23.50;69.50
31455;DHT22;18084;53.028;8.834;2022-09-01T14:38:54;23.40;70.50
31455;DHT22;18084;53.028;8.834;2022-09-01T14:41:21;23.40;69.20
31455;DHT22;18084;53.028;8.834;2022-09-01T14:43:51;23.60;70.20
31455;DHT22;18084;53.028;8.834;2022-09-01T14:46:18;24.20;70.10
31455;DHT22;18084;53.028;8.834;2022-09-01T14:48:44;24.30;69.10
31455;DHT22;18084;53.028;8.834;2022-09-01T14:51:22;24.30;68.20
31455;DHT22;18084;53.028;8.834;2022-09-01T14:53:48;24.30;69.20
31455;DHT22;18084;53.028;8.834;2022-09-01T14:56:14;24.30;67.70
31455;DHT22;18084;53.028;8.834;2022-09-01T14:58:42;24.40;67.60
31455;DHT22;18084;53.028;8.834;2022-09-01T15:01:09;24.20;66.80
31455;DHT22;18084;53.028;8.834;2022-09-01T15:03:36;24.00;66.80
31455;DHT22;18084;53.028;8.834;2022-09-01T15:06:02;24.20;67.30
31455;DHT22;18084;53.028;8.834;2022-09-01T15:08:28;24.30;67.00
31455;DHT22;18084;53.028;8.834;2022-09-01T15:10:53;24.20;65.80
31455;DHT22;18084;53.028;8.834;2022-09-01T15:13:19;24.00;65.40
31455;DHT22;18084;53.028;8.834;2022-09-01T15:15:44;24.10;65.80
31455;DHT22;18084;53.028;8.834;2022-09-01T15:18:10;24.10;66.00
31455;DHT22;18084;53.028;8.834;2022-09-01T15:20:40;24.30;65.90
31455;DHT22;18084;53.028;8.834;2022-09-01T15:23:21;24.50;65.50
31455;DHT22;18084;53.028;8.834;2022-09-01T15:25:50;24.80;65.30
31455;DHT22;18084;53.028;8.834;2022-09-01T15:28:16;24.80;65.10
31455;DHT22;18084;53.028;8.834;2022-09-01T15:30:42;25.00;64.60
31455;DHT22;18084;53.028;8.834;2022-09-01T15:33:10;24.40;65.30
31455;DHT22;18084;53.028;8.834;2022-09-01T15:35:35;24.30;65.90
31455;DHT22;18084;53.028;8.834;2022-09-01T15:38:01;24.30;64.50
31455;DHT22;18084;53.028;8.834;2022-09-01T15:40:27;24.40;65.30
31455;DHT22;18084;53.028;8.834;2022-09-01T15:42:54;23.90;64.80
31455;DHT22;18084;53.028;8.834;2022-09-01T15:45:22;23.90;64.70
31455;DHT22;18084;53.028;8.834;2022-09-01T15:47:48;23.50;64.70
31455;DHT22;18084;53.028;8.834;2022-09-01T15:50:18;23.50;65.00
31455;DHT22;18084;53.028;8.834;2022-09-01T15:52:54;23.70;65.80
31455;DHT22;18084;53.028;8.834;2022-09-01T15:55:41;23.50;65.00
31455;DHT22;18084;53.028;8.834;2022-09-01T15:58:08;23.30;64.20
31455;DHT22;18084;53.028;8.834;2022-09-01T16:00:34;23.20;64.30
31455;DHT22;18084;53.028;8.834;2022-09-01T16:02:59;23.10;63.80
31455;DHT22;18084;53.028;8.834;2022-09-01T16:05:30;23.30;64.20
31455;DHT22;18084;53.028;8.834;2022-09-01T16:07:56;23.40;65.20
31455;DHT22;18084;53.028;8.834;2022-09-01T16:10:22;23.90;63.80
31455;DHT22;18084;53.028;8.834;2022-09-01T16:12:48;23.40;64.20
31455;DHT22;18084;53.028;8.834;2022-09-01T16:15:16;23.40;63.70
31455;DHT22;18084;53.028;8.834;2022-09-01T16:20:20;23.40;64.80
31455;DHT22;18084;53.028;8.834;2022-09-01T16:23:14;23.40;64.80
31455;DHT22;18084;53.028;8.834;2022-09-01T16:25:40;23.50;64.60
31455;DHT22;18084;53.028;8.834;2022-09-01T16:30:43;23.30;64.40
31455;DHT22;18084;53.028;8.834;2022-09-01T16:33:09;23.70;63.40
31455;DHT22;18084;53.028;8.834;2022-09-01T16:35:57;23.70;62.60
31455;DHT22;18084;53.028;8.834;2022-09-01T16:38:46;23.30;64.40
31455;DHT22;18084;53.028;8.834;2022-09-01T16:44:19;22.90;64.20
31455;DHT22;18084;53.028;8.834;2022-09-01T16:47:03;22.70;64.10
31455;DHT22;18084;53.028;8.834;2022-09-01T16:49:51;22.80;65.30
31455;DHT22;18084;53.028;8.834;2022-09-01T16:52:26;22.90;64.90
31455;DHT22;18084;53.028;8.834;2022-09-01T16:55:21;23.10;64.90
31455;DHT22;18084;53.028;8.834;2022-09-01T16:58:08;23.30;65.10
31455;DHT22;18084;53.028;8.834;2022-09-01T17:03:18;23.20;64.20
31455;DHT22;18084;53.028;8.834;2022-09-01T17:05:49;22.90;64.70
31455;DHT22;18084;53.028;8.834;2022-09-01T17:08:24;22.90;64.20
31455;DHT22;18084;53.028;8.834;2022-09-01T17:11:02;22.80;64.10
31455;DHT22;18084;53.028;8.834;2022-09-01T17:13:37;22.90;64.00
31455;DHT22;18084;53.028;8.834;2022-09-01T17:16:23;22.70;63.20
31455;DHT22;18084;53.028;8.834;2022-09-01T17:18:58;22.50;63.30
31455;DHT22;18084;53.028;8.834;2022-09-01T17:21:48;22.30;63.70
31455;DHT22;18084;53.028;8.834;2022-09-01T17:24:42;22.10;64.10
31455;DHT22;18084;53.028;8.834;2022-09-01T17:27:24;22.10;64.40
31455;DHT22;18084;53.028;8.834;2022-09-01T17:29:55;22.00;64.70
31455;DHT22;18084;53.028;8.834;2022-09-01T17:35:38;21.80;65.60
31455;DHT22;18084;53.028;8.834;2022-09-01T17:38:37;21.70;65.80
31455;DHT22;18084;53.028;8.834;2022-09-01T17:41:14;21.70;65.70
31455;DHT22;18084;53.028;8.834;2022-09-01T17:44:01;21.60;66.10
31455;DHT22;18084;53.028;8.834;2022-09-01T17:52:30;21.60;65.80
31455;DHT22;18084;53.028;8.834;2022-09-01T17:55:31;21.60;66.60
31455;DHT22;18084;53.028;8.834;2022-09-01T17:58:26;21.10;67.80
31455;DHT22;18084;53.028;8.834;2022-09-01T18:01:16;21.10;68.30
31455;DHT22;18084;53.028;8.834;2022-09-01T18:10:09;20.80;69.50
31455;DHT22;18084;53.028;8.834;2022-09-01T18:12:42;20.70;68.30
31455;DHT22;18084;53.028;8.834;2022-09-01T18:22:30;20.50;69.70
31455;DHT22;18084;53.028;8.834;2022-09-01T18:25:19;20.30;70.50
31455;DHT22;18084;53.028;8.834;2022-09-01T18:27:45;20.30;71.90
31455;DHT22;18084;53.028;8.834;2022-09-01T18:30:20;20.20;71.90
31455;DHT22;18084;53.028;8.834;2022-09-01T18:35:30;20.00;73.50
31455;DHT22;18084;53.028;8.834;2022-09-01T18:38:09;20.00;73.90
31455;DHT22;18084;53.028;8.834;2022-09-01T18:43:35;19.90;75.10
31455;DHT22;18084;53.028;8.834;2022-09-01T18:48:51;19.80;86.10
31455;DHT22;18084;53.028;8.834;2022-09-01T18:51:22;19.60;77.50
31455;DHT22;18084;53.028;8.834;2022-09-01T18:54:13;19.60;77.90
31455;DHT22;18084;53.028;8.834;2022-09-01T18:56:49;19.50;79.30
31455;DHT22;18084;53.028;8.834;2022-09-01T19:45:37;18.40;96.10
31455;DHT22;18084;53.028;8.834;2022-09-01T19:53:13;18.20;98.60
31455;DHT22;18084;53.028;8.834;2022-09-01T19:58:20;18.10;99.90
31455;DHT22;18084;53.028;8.834;2022-09-01T20:01:09;18.10;99.90
31455;DHT22;18084;53.028;8.834;2022-09-01T20:03:46;18.00;99.90
31455;DHT22;18084;53.028;8.834;2022-09-01T20:06:17;17.90;99.90
31455;DHT22;18084;53.028;8.834;2022-09-01T20:08:55;17.90;99.90
31455;DHT22;18084;53.028;8.834;2022-09-01T20:11:34;17.80;99.90
31455;DHT22;18084;53.028;8.834;2022-09-01T20:16:51;17.70;99.90
31455;DHT22;18084;53.028;8.834;2022-09-01T20:21:51;17.60;99.90
31455;DHT22;18084;53.028;8.834;2022-09-01T20:24:25;17.50;99.90
31455;DHT22;18084;53.028;8.834;2022-09-01T20:27:12;17.50;99.90
31455;DHT22;18084;53.028;8.834;2022-09-01T20:35:15;17.40;99.90
31455;DHT22;18084;53.028;8.834;2022-09-01T20:37:47;17.30;99.90
31455;DHT22;18084;53.028;8.834;2022-09-01T20:40:25;17.30;99.90
31455;DHT22;18084;53.028;8.834;2022-09-01T20:43:13;17.20;99.90
31455;DHT22;18084;53.028;8.834;2022-09-01T20:45:44;17.20;99.90
31455;DHT22;18084;53.028;8.834;2022-09-01T20:48:14;17.20;99.90
31455;DHT22;18084;53.028;8.834;2022-09-01T20:51:00;17.10;99.90
31455;DHT22;18084;53.028;8.834;2022-09-01T20:53:55;17.30;99.90
31455;DHT22;18084;53.028;8.834;2022-09-01T20:59:08;17.20;99.90
31455;DHT22;18084;53.028;8.834;2022-09-01T21:04:39;16.90;99.90
31455;DHT22;18084;53.028;8.834;2022-09-01T21:07:14;18.10;99.90
31455;DHT22;18084;53.028;8.834;2022-09-01T21:10:02;16.90;99.90
31455;DHT22;18084;53.028;8.834;2022-09-01T21:12:38;16.90;99.90
31455;DHT22;18084;53.028;8.834;2022-09-01T21:15:19;16.80;99.90
31455;DHT22;18084;53.028;8.834;2022-09-01T21:18:01;16.70;99.90
31455;DHT22;18084;53.028;8.834;2022-09-01T21:20:47;16.70;99.90
31455;DHT22;18084;53.028;8.834;2022-09-01T21:23:14;16.70;99.90
31455;DHT22;18084;53.028;8.834;2022-09-01T21:25:42;15.80;99.90
31455;DHT22;18084;53.028;8.834;2022-09-01T21:28:09;17.00;99.90
31455;DHT22;18084;53.028;8.834;2022-09-01T21:30:36;17.70;99.90
31455;DHT22;18084;53.028;8.834;2022-09-01T21:33:02;16.50;99.90
31455;DHT22;18084;53.028;8.834;2022-09-01T21:35:28;16.50;99.90
31455;DHT22;18084;53.028;8.834;2022-09-01T21:37:54;16.40;99.90
31455;DHT22;18084;53.028;8.834;2022-09-01T21:40:20;16.40;99.90
31455;DHT22;18084;53.028;8.834;2022-09-01T21:42:59;16.40;99.90
31455;DHT22;18084;53.028;8.834;2022-09-01T21:45:27;16.30;99.90
31455;DHT22;18084;53.028;8.834;2022-09-01T21:47:52;17.20;99.90
31455;DHT22;18084;53.028;8.834;2022-09-01T21:50:21;16.80;99.90
31455;DHT22;18084;53.028;8.834;2022-09-01T21:52:47;16.20;99.90
31455;DHT22;18084;53.028;8.834;2022-09-01T21:55:13;15.60;99.90
31455;DHT22;18084;53.028;8.834;2022-09-01T21:57:39;16.30;99.90
31455;DHT22;18084;53.028;8.834;2022-09-01T22:00:15;16.20;99.90
31455;DHT22;18084;53.028;8.834;2022-09-01T22:02:41;16.10;99.90
31455;DHT22;18084;53.028;8.834;2022-09-01T22:05:07;16.10;99.90
31455;DHT22;18084;53.028;8.834;2022-09-01T22:07:38;16.10;99.90
31455;DHT22;18084;53.028;8.834;2022-09-01T22:10:06;16.00;99.90
31455;DHT22;18084;53.028;8.834;2022-09-01T22:12:35;15.90;99.90
31455;DHT22;18084;53.028;8.834;2022-09-01T22:15:06;16.00;99.90
31455;DHT22;18084;53.028;8.834;2022-09-01T22:17:33;16.00;99.90
31455;DHT22;18084;53.028;8.834;2022-09-01T22:19:59;16.00;99.90
31455;DHT22;18084;53.028;8.834;2022-09-01T22:22:25;15.90;99.90
31455;DHT22;18084;53.028;8.834;2022-09-01T22:24:51;15.90;99.90
31455;DHT22;18084;53.028;8.834;2022-09-01T22:27:16;15.90;99.90
31455;DHT22;18084;53.028;8.834;2022-09-01T22:29:42;15.80;99.90
31455;DHT22;18084;53.028;8.834;2022-09-01T22:32:07;16.00;99.90
31455;DHT22;18084;53.028;8.834;2022-09-01T22:34:33;15.80;99.90
31455;DHT22;18084;53.028;8.834;2022-09-01T22:36:59;15.80;99.90
31455;DHT22;18084;53.028;8.834;2022-09-01T22:39:24;15.70;99.90
31455;DHT22;18084;53.028;8.834;2022-09-01T22:41:50;15.70;99.90
31455;DHT22;18084;53.028;8.834;2022-09-01T22:44:15;15.60;99.90
31455;DHT22;18084;53.028;8.834;2022-09-01T22:46:42;15.60;99.90
31455;DHT22;18084;53.028;8.834;2022-09-01T22:49:08;15.60;99.90
31455;DHT22;18084;53.028;8.834;2022-09-01T22:51:40;15.50;99.90
31455;DHT22;18084;53.028;8.834;2022-09-01T22:54:07;15.50;99.90
31455;DHT22;18084;53.028;8.834;2022-09-01T22:56:36;15.40;99.90
31455;DHT22;18084;53.028;8.834;2022-09-01T22:59:04;15.40;99.90
31455;DHT22;18084;53.028;8.834;2022-09-01T23:01:34;15.30;99.90
31455;DHT22;18084;53.028;8.834;2022-09-01T23:04:02;15.30;99.90
31455;DHT22;18084;53.028;8.834;2022-09-01T23:06:30;15.30;99.90
31455;DHT22;18084;53.028;8.834;2022-09-01T23:08:58;15.20;99.90
31455;DHT22;18084;53.028;8.834;2022-09-01T23:11:24;15.20;99.90
31455;DHT22;18084;53.028;8.834;2022-09-01T23:13:51;15.10;99.90
31455;DHT22;18084;53.028;8.834;2022-09-01T23:16:16;15.10;99.90
31455;DHT22;18084;53.028;8.834;2022-09-01T23:18:44;15.00;99.90
31455;DHT22;18084;53.028;8.834;2022-09-01T23:21:12;14.90;99.90
31455;DHT22;18084;53.028;8.834;2022-09-01T23:23:38;14.90;99.90
31455;DHT22;18084;53.028;8.834;2022-09-01T23:26:06;14.90;99.90
31455;DHT22;18084;53.028;8.834;2022-09-01T23:28:33;14.90;99.90
31455;DHT22;18084;53.028;8.834;2022-09-01T23:30:59;14.80;1.00
31455;DHT22;18084;53.028;8.834;2022-09-01T23:33:26;14.80;1.00
31455;DHT22;18084;53.028;8.834;2022-09-01T23:35:53;14.80;1.00
31455;DHT22;18084;53.028;8.834;2022-09-01T23:38:21;14.80;1.00
31455;DHT22;18084;53.028;8.834;2022-09-01T23:40:49;14.70;1.00
31455;DHT22;18084;53.028;8.834;2022-09-01T23:43:17;14.60;1.00
31455;DHT22;18084;53.028;8.834;2022-09-01T23:45:49;14.60;1.00
31455;DHT22;18084;53.028;8.834;2022-09-01T23:48:15;14.60;6.10
31455;DHT22;18084;53.028;8.834;2022-09-01T23:50:48;14.60;23.20
31455;DHT22;18084;53.028;8.834;2022-09-01T23:53:18;14.50;43.10
31455;DHT22;18084;53.028;8.834;2022-09-01T23:55:47;14.50;72.30
31455;DHT22;18084;53.028;8.834;2022-09-01T23:58:14;14.40;99.90
